sensor_id;sensor_type;location;lat;lon;timestamp;P1;durP1;ratioP1;P2;durP2;ratioP2
44426;SDS011;30133;47.866;-4.222;2022-12-10T00:02:25;9.80;;;5.10;;
44426;SDS011;30133;47.866;-4.222;2022-12-10T00:04:51;9.23;;;5.00;;
44426;SDS011;30133;47.866;-4.222;2022-12-10T00:07:17;9.38;;;4.68;;
44426;SDS011;30133;47.866;-4.222;2022-12-10T00:09:43;12.88;;;5.45;;
44426;SDS011;30133;47.866;-4.222;2022-12-10T00:12:09;9.73;;;5.55;;
44426;SDS011;30133;47.866;-4.222;2022-12-10T00:14:35;9.43;;;5.18;;
44426;SDS011;30133;47.866;-4.222;2022-12-10T00:17:02;10.13;;;5.57;;
44426;SDS011;30133;47.866;-4.222;2022-12-10T00:19:29;8.65;;;5.55;;
44426;SDS011;30133;47.866;-4.222;2022-12-10T00:21:55;9.73;;;5.32;;
44426;SDS011;30133;47.866;-4.222;2022-12-10T00:24:21;8.77;;;5.63;;
44426;SDS011;30133;47.866;-4.222;2022-12-10T00:26:47;6.85;;;4.85;;
44426;SDS011;30133;47.866;-4.222;2022-12-10T00:29:13;11.80;;;5.97;;
44426;SDS011;30133;47.866;-4.222;2022-12-10T00:31:39;10.43;;;5.45;;
44426;SDS011;30133;47.866;-4.222;2022-12-10T00:34:07;7.78;;;4.90;;
44426;SDS011;30133;47.866;-4.222;2022-12-10T00:36:40;8.75;;;5.22;;
44426;SDS011;30133;47.866;-4.222;2022-12-10T00:39:10;7.57;;;5.32;;
44426;SDS011;30133;47.866;-4.222;2022-12-10T00:41:38;9.57;;;5.10;;
44426;SDS011;30133;47.866;-4.222;2022-12-10T00:44:05;6.38;;;4.93;;
44426;SDS011;30133;47.866;-4.222;2022-12-10T00:46:31;8.40;;;5.38;;
44426;SDS011;30133;47.866;-4.222;2022-12-10T00:48:58;9.32;;;4.55;;
44426;SDS011;30133;47.866;-4.222;2022-12-10T00:51:25;8.48;;;4.82;;
44426;SDS011;30133;47.866;-4.222;2022-12-10T00:53:53;8.75;;;5.47;;
44426;SDS011;30133;47.866;-4.222;2022-12-10T00:56:22;7.18;;;4.75;;
44426;SDS011;30133;47.866;-4.222;2022-12-10T00:58:52;7.38;;;4.57;;
44426;SDS011;30133;47.866;-4.222;2022-12-10T01:01:26;8.77;;;5.53;;
44426;SDS011;30133;47.866;-4.222;2022-12-10T01:04:00;6.00;;;4.30;;
44426;SDS011;30133;47.866;-4.222;2022-12-10T01:06:33;8.35;;;4.68;;
44426;SDS011;30133;47.866;-4.222;2022-12-10T01:09:03;7.22;;;5.30;;
44426;SDS011;30133;47.866;-4.222;2022-12-10T01:11:32;8.25;;;5.10;;
44426;SDS011;30133;47.866;-4.222;2022-12-10T01:14:03;7.22;;;4.57;;
44426;SDS011;30133;47.866;-4.222;2022-12-10T01:16:31;7.95;;;4.78;;
44426;SDS011;30133;47.866;-4.222;2022-12-10T01:18:58;10.65;;;5.10;;
44426;SDS011;30133;47.866;-4.222;2022-12-10T01:21:25;7.15;;;4.35;;
44426;SDS011;30133;47.866;-4.222;2022-12-10T01:23:53;6.80;;;4.55;;
44426;SDS011;30133;47.866;-4.222;2022-12-10T01:26:25;8.98;;;4.97;;
44426;SDS011;30133;47.866;-4.222;2022-12-10T01:28:54;7.55;;;4.63;;
44426;SDS011;30133;47.866;-4.222;2022-12-10T01:31:24;11.38;;;5.13;;
44426;SDS011;30133;47.866;-4.222;2022-12-10T01:34:00;11.38;;;5.30;;
44426;SDS011;30133;47.866;-4.222;2022-12-10T01:36:29;6.65;;;4.57;;
44426;SDS011;30133;47.866;-4.222;2022-12-10T01:39:02;6.40;;;4.22;;
44426;SDS011;30133;47.866;-4.222;2022-12-10T01:41:33;7.57;;;4.80;;
44426;SDS011;30133;47.866;-4.222;2022-12-10T01:46:47;7.88;;;4.82;;
44426;SDS011;30133;47.866;-4.222;2022-12-10T01:49:20;12.10;;;4.57;;
44426;SDS011;30133;47.866;-4.222;2022-12-10T01:52:03;7.72;;;5.00;;
44426;SDS011;30133;47.866;-4.222;2022-12-10T01:54:34;7.78;;;4.95;;
44426;SDS011;30133;47.866;-4.222;2022-12-10T01:57:08;7.07;;;4.20;;
44426;SDS011;30133;47.866;-4.222;2022-12-10T01:59:42;7.38;;;4.07;;
44426;SDS011;30133;47.866;-4.222;2022-12-10T02:05:27;11.20;;;5.00;;
44426;SDS011;30133;47.866;-4.222;2022-12-10T02:08:11;7.72;;;4.72;;
44426;SDS011;30133;47.866;-4.222;2022-12-10T02:14:16;6.63;;;4.60;;
44426;SDS011;30133;47.866;-4.222;2022-12-10T02:17:13;8.50;;;4.63;;
44426;SDS011;30133;47.866;-4.222;2022-12-10T02:25:43;6.88;;;3.97;;
44426;SDS011;30133;47.866;-4.222;2022-12-10T02:31:21;8.30;;;4.25;;
44426;SDS011;30133;47.866;-4.222;2022-12-10T02:33:53;6.38;;;4.97;;
44426;SDS011;30133;47.866;-4.222;2022-12-10T02:36:25;7.75;;;4.18;;
44426;SDS011;30133;47.866;-4.222;2022-12-10T02:38:57;6.20;;;3.92;;
44426;SDS011;30133;47.866;-4.222;2022-12-10T02:41:46;6.35;;;3.97;;
44426;SDS011;30133;47.866;-4.222;2022-12-10T02:44:17;7.22;;;4.13;;
44426;SDS011;30133;47.866;-4.222;2022-12-10T02:46:45;8.50;;;5.30;;
44426;SDS011;30133;47.866;-4.222;2022-12-10T02:49:16;7.28;;;4.55;;
44426;SDS011;30133;47.866;-4.222;2022-12-10T02:51:43;8.05;;;4.80;;
44426;SDS011;30133;47.866;-4.222;2022-12-10T02:57:05;9.02;;;4.80;;
44426;SDS011;30133;47.866;-4.222;2022-12-10T03:00:14;6.93;;;4.28;;
44426;SDS011;30133;47.866;-4.222;2022-12-10T03:03:11;7.07;;;4.93;;
44426;SDS011;30133;47.866;-4.222;2022-12-10T03:05:54;7.07;;;3.90;;
44426;SDS011;30133;47.866;-4.222;2022-12-10T03:11:22;6.97;;;4.25;;
44426;SDS011;30133;47.866;-4.222;2022-12-10T03:16:46;7.10;;;4.15;;
44426;SDS011;30133;47.866;-4.222;2022-12-10T03:19:20;7.07;;;4.65;;
44426;SDS011;30133;47.866;-4.222;2022-12-10T03:21:51;7.97;;;4.57;;
44426;SDS011;30133;47.866;-4.222;2022-12-10T03:24:19;7.45;;;4.53;;
44426;SDS011;30133;47.866;-4.222;2022-12-10T03:26:47;9.80;;;4.03;;
44426;SDS011;30133;47.866;-4.222;2022-12-10T03:29:19;9.38;;;4.78;;
44426;SDS011;30133;47.866;-4.222;2022-12-10T03:32:13;6.15;;;3.80;;
44426;SDS011;30133;47.866;-4.222;2022-12-10T03:34:41;7.40;;;4.30;;
44426;SDS011;30133;47.866;-4.222;2022-12-10T03:37:09;7.45;;;4.70;;
44426;SDS011;30133;47.866;-4.222;2022-12-10T03:39:37;6.50;;;4.38;;
44426;SDS011;30133;47.866;-4.222;2022-12-10T03:42:04;7.68;;;4.68;;
44426;SDS011;30133;47.866;-4.222;2022-12-10T03:44:32;7.13;;;4.35;;
44426;SDS011;30133;47.866;-4.222;2022-12-10T03:47:00;6.60;;;4.40;;
44426;SDS011;30133;47.866;-4.222;2022-12-10T03:49:29;7.53;;;4.72;;
44426;SDS011;30133;47.866;-4.222;2022-12-10T03:51:55;8.00;;;4.13;;
44426;SDS011;30133;47.866;-4.222;2022-12-10T03:54:21;7.28;;;4.30;;
44426;SDS011;30133;47.866;-4.222;2022-12-10T03:56:47;9.23;;;3.97;;
44426;SDS011;30133;47.866;-4.222;2022-12-10T03:59:14;6.68;;;4.50;;
44426;SDS011;30133;47.866;-4.222;2022-12-10T04:01:40;7.28;;;3.58;;
44426;SDS011;30133;47.866;-4.222;2022-12-10T04:04:06;6.78;;;4.32;;
44426;SDS011;30133;47.866;-4.222;2022-12-10T04:06:33;7.53;;;4.43;;
44426;SDS011;30133;47.866;-4.222;2022-12-10T04:09:02;7.47;;;4.68;;
44426;SDS011;30133;47.866;-4.222;2022-12-10T04:11:28;7.78;;;4.45;;
44426;SDS011;30133;47.866;-4.222;2022-12-10T04:13:54;5.82;;;4.03;;
44426;SDS011;30133;47.866;-4.222;2022-12-10T04:16:39;9.55;;;4.72;;
44426;SDS011;30133;47.866;-4.222;2022-12-10T04:19:06;7.53;;;4.68;;
44426;SDS011;30133;47.866;-4.222;2022-12-10T04:21:37;7.72;;;4.38;;
44426;SDS011;30133;47.866;-4.222;2022-12-10T04:24:24;6.88;;;4.20;;
44426;SDS011;30133;47.866;-4.222;2022-12-10T04:27:12;7.40;;;4.18;;
44426;SDS011;30133;47.866;-4.222;2022-12-10T04:29:45;6.13;;;4.15;;
44426;SDS011;30133;47.866;-4.222;2022-12-10T04:32:11;6.68;;;4.30;;
44426;SDS011;30133;47.866;-4.222;2022-12-10T04:34:38;7.82;;;4.03;;
44426;SDS011;30133;47.866;-4.222;2022-12-10T04:37:04;8.27;;;4.47;;
44426;SDS011;30133;47.866;-4.222;2022-12-10T04:39:31;7.97;;;4.43;;
44426;SDS011;30133;47.866;-4.222;2022-12-10T04:41:58;7.85;;;4.15;;
44426;SDS011;30133;47.866;-4.222;2022-12-10T04:44:25;7.65;;;4.32;;
44426;SDS011;30133;47.866;-4.222;2022-12-10T04:46:52;6.30;;;4.07;;
44426;SDS011;30133;47.866;-4.222;2022-12-10T04:49:18;7.97;;;4.38;;
44426;SDS011;30133;47.866;-4.222;2022-12-10T04:51:44;6.30;;;4.03;;
44426;SDS011;30133;47.866;-4.222;2022-12-10T04:54:12;6.45;;;3.72;;
44426;SDS011;30133;47.866;-4.222;2022-12-10T04:56:39;8.23;;;4.25;;
44426;SDS011;30133;47.866;-4.222;2022-12-10T04:59:06;9.13;;;4.75;;
44426;SDS011;30133;47.866;-4.222;2022-12-10T05:01:33;7.97;;;4.30;;
44426;SDS011;30133;47.866;-4.222;2022-12-10T05:04:01;7.93;;;4.15;;
44426;SDS011;30133;47.866;-4.222;2022-12-10T05:06:30;5.97;;;3.83;;
44426;SDS011;30133;47.866;-4.222;2022-12-10T05:08:57;6.03;;;3.83;;
44426;SDS011;30133;47.866;-4.222;2022-12-10T05:11:24;6.35;;;4.28;;
44426;SDS011;30133;47.866;-4.222;2022-12-10T05:13:53;7.50;;;3.83;;
44426;SDS011;30133;47.866;-4.222;2022-12-10T05:16:20;6.03;;;4.00;;
44426;SDS011;30133;47.866;-4.222;2022-12-10T05:18:49;5.85;;;3.88;;
44426;SDS011;30133;47.866;-4.222;2022-12-10T05:21:16;8.13;;;4.90;;
44426;SDS011;30133;47.866;-4.222;2022-12-10T05:23:45;5.93;;;4.10;;
44426;SDS011;30133;47.866;-4.222;2022-12-10T05:26:14;6.60;;;3.90;;
44426;SDS011;30133;47.866;-4.222;2022-12-10T05:28:47;7.15;;;4.28;;
44426;SDS011;30133;47.866;-4.222;2022-12-10T05:31:22;6.00;;;3.70;;
44426;SDS011;30133;47.866;-4.222;2022-12-10T05:33:51;8.90;;;4.10;;
44426;SDS011;30133;47.866;-4.222;2022-12-10T05:36:20;9.32;;;3.78;;
44426;SDS011;30133;47.866;-4.222;2022-12-10T05:38:48;7.68;;;4.38;;
44426;SDS011;30133;47.866;-4.222;2022-12-10T05:41:16;5.80;;;3.78;;
44426;SDS011;30133;47.866;-4.222;2022-12-10T05:43:45;5.35;;;3.70;;
44426;SDS011;30133;47.866;-4.222;2022-12-10T05:46:14;6.15;;;3.63;;
44426;SDS011;30133;47.866;-4.222;2022-12-10T05:48:46;6.32;;;4.38;;
44426;SDS011;30133;47.866;-4.222;2022-12-10T05:51:13;6.55;;;3.75;;
44426;SDS011;30133;47.866;-4.222;2022-12-10T05:53:42;5.25;;;3.50;;
44426;SDS011;30133;47.866;-4.222;2022-12-10T05:56:10;7.15;;;4.07;;
44426;SDS011;30133;47.866;-4.222;2022-12-10T05:58:41;8.10;;;3.65;;
44426;SDS011;30133;47.866;-4.222;2022-12-10T06:01:13;6.20;;;3.30;;
44426;SDS011;30133;47.866;-4.222;2022-12-10T06:03:42;7.43;;;4.07;;
44426;SDS011;30133;47.866;-4.222;2022-12-10T06:06:08;5.05;;;3.72;;
44426;SDS011;30133;47.866;-4.222;2022-12-10T06:08:36;6.72;;;3.83;;
44426;SDS011;30133;47.866;-4.222;2022-12-10T06:11:04;6.55;;;4.13;;
44426;SDS011;30133;47.866;-4.222;2022-12-10T06:13:41;4.60;;;3.08;;
44426;SDS011;30133;47.866;-4.222;2022-12-10T06:16:08;5.78;;;3.33;;
44426;SDS011;30133;47.866;-4.222;2022-12-10T06:18:37;4.38;;;3.45;;
44426;SDS011;30133;47.866;-4.222;2022-12-10T06:21:04;6.72;;;3.80;;
44426;SDS011;30133;47.866;-4.222;2022-12-10T06:23:33;7.00;;;3.45;;
44426;SDS011;30133;47.866;-4.222;2022-12-10T06:26:07;6.00;;;3.75;;
44426;SDS011;30133;47.866;-4.222;2022-12-10T06:28:37;6.93;;;3.60;;
44426;SDS011;30133;47.866;-4.222;2022-12-10T06:31:03;7.53;;;3.92;;
44426;SDS011;30133;47.866;-4.222;2022-12-10T06:33:30;5.05;;;3.28;;
44426;SDS011;30133;47.866;-4.222;2022-12-10T06:35:56;5.95;;;3.55;;
44426;SDS011;30133;47.866;-4.222;2022-12-10T06:38:22;5.22;;;3.53;;
44426;SDS011;30133;47.866;-4.222;2022-12-10T06:40:49;5.78;;;3.50;;
44426;SDS011;30133;47.866;-4.222;2022-12-10T06:43:15;7.28;;;3.70;;
44426;SDS011;30133;47.866;-4.222;2022-12-10T06:45:41;5.72;;;4.15;;
44426;SDS011;30133;47.866;-4.222;2022-12-10T06:48:08;6.18;;;3.63;;
44426;SDS011;30133;47.866;-4.222;2022-12-10T06:50:35;6.18;;;3.75;;
44426;SDS011;30133;47.866;-4.222;2022-12-10T06:53:01;6.15;;;4.13;;
44426;SDS011;30133;47.866;-4.222;2022-12-10T06:55:27;5.45;;;3.55;;
44426;SDS011;30133;47.866;-4.222;2022-12-10T06:57:53;5.20;;;3.42;;
44426;SDS011;30133;47.866;-4.222;2022-12-10T07:00:20;8.48;;;4.50;;
44426;SDS011;30133;47.866;-4.222;2022-12-10T07:02:48;4.50;;;3.30;;
44426;SDS011;30133;47.866;-4.222;2022-12-10T07:05:14;4.90;;;3.08;;
44426;SDS011;30133;47.866;-4.222;2022-12-10T07:07:41;6.45;;;3.33;;
44426;SDS011;30133;47.866;-4.222;2022-12-10T07:10:08;5.72;;;3.70;;
44426;SDS011;30133;47.866;-4.222;2022-12-10T07:12:35;4.40;;;3.05;;
44426;SDS011;30133;47.866;-4.222;2022-12-10T07:15:01;5.30;;;3.35;;
44426;SDS011;30133;47.866;-4.222;2022-12-10T07:17:27;5.53;;;3.15;;
44426;SDS011;30133;47.866;-4.222;2022-12-10T07:19:53;4.63;;;3.03;;
44426;SDS011;30133;47.866;-4.222;2022-12-10T07:22:19;4.35;;;3.13;;
44426;SDS011;30133;47.866;-4.222;2022-12-10T07:24:45;5.25;;;3.33;;
44426;SDS011;30133;47.866;-4.222;2022-12-10T07:27:13;5.38;;;3.40;;
44426;SDS011;30133;47.866;-4.222;2022-12-10T07:29:39;6.72;;;3.20;;
44426;SDS011;30133;47.866;-4.222;2022-12-10T07:32:05;4.65;;;3.25;;
44426;SDS011;30133;47.866;-4.222;2022-12-10T07:34:31;6.57;;;3.53;;
44426;SDS011;30133;47.866;-4.222;2022-12-10T07:36:57;5.80;;;3.80;;
44426;SDS011;30133;47.866;-4.222;2022-12-10T07:39:23;4.68;;;3.08;;
44426;SDS011;30133;47.866;-4.222;2022-12-10T07:41:50;6.03;;;3.33;;
44426;SDS011;30133;47.866;-4.222;2022-12-10T07:44:18;4.53;;;3.47;;
44426;SDS011;30133;47.866;-4.222;2022-12-10T07:46:46;5.43;;;3.20;;
44426;SDS011;30133;47.866;-4.222;2022-12-10T07:49:15;5.43;;;3.33;;
44426;SDS011;30133;47.866;-4.222;2022-12-10T07:51:44;5.05;;;3.17;;
44426;SDS011;30133;47.866;-4.222;2022-12-10T07:54:12;5.25;;;3.42;;
44426;SDS011;30133;47.866;-4.222;2022-12-10T07:56:39;5.45;;;3.45;;
44426;SDS011;30133;47.866;-4.222;2022-12-10T07:59:05;5.88;;;3.20;;
44426;SDS011;30133;47.866;-4.222;2022-12-10T08:01:32;7.25;;;3.05;;
44426;SDS011;30133;47.866;-4.222;2022-12-10T08:03:58;7.50;;;3.75;;
44426;SDS011;30133;47.866;-4.222;2022-12-10T08:06:25;3.92;;;3.22;;
44426;SDS011;30133;47.866;-4.222;2022-12-10T08:08:53;5.45;;;3.75;;
44426;SDS011;30133;47.866;-4.222;2022-12-10T08:11:20;5.10;;;3.85;;
44426;SDS011;30133;47.866;-4.222;2022-12-10T08:13:48;5.68;;;3.70;;
44426;SDS011;30133;47.866;-4.222;2022-12-10T08:16:15;4.13;;;3.08;;
44426;SDS011;30133;47.866;-4.222;2022-12-10T08:18:44;6.50;;;3.83;;
44426;SDS011;30133;47.866;-4.222;2022-12-10T08:21:15;5.13;;;3.40;;
44426;SDS011;30133;47.866;-4.222;2022-12-10T08:23:44;5.47;;;3.40;;
44426;SDS011;30133;47.866;-4.222;2022-12-10T08:26:15;4.15;;;2.70;;
44426;SDS011;30133;47.866;-4.222;2022-12-10T08:28:47;5.53;;;3.42;;
44426;SDS011;30133;47.866;-4.222;2022-12-10T08:31:18;6.60;;;3.47;;
44426;SDS011;30133;47.866;-4.222;2022-12-10T08:33:45;6.57;;;3.92;;
44426;SDS011;30133;47.866;-4.222;2022-12-10T08:36:12;5.05;;;3.35;;
44426;SDS011;30133;47.866;-4.222;2022-12-10T08:38:46;6.75;;;3.60;;
44426;SDS011;30133;47.866;-4.222;2022-12-10T08:41:14;6.15;;;3.20;;
44426;SDS011;30133;47.866;-4.222;2022-12-10T08:43:43;4.93;;;3.42;;
44426;SDS011;30133;47.866;-4.222;2022-12-10T08:46:10;4.43;;;3.20;;
44426;SDS011;30133;47.866;-4.222;2022-12-10T08:48:37;6.43;;;3.75;;
44426;SDS011;30133;47.866;-4.222;2022-12-10T08:51:04;3.80;;;2.88;;
44426;SDS011;30133;47.866;-4.222;2022-12-10T08:53:32;5.43;;;3.92;;
44426;SDS011;30133;47.866;-4.222;2022-12-10T08:56:05;5.38;;;3.47;;
44426;SDS011;30133;47.866;-4.222;2022-12-10T08:58:32;4.95;;;3.90;;
44426;SDS011;30133;47.866;-4.222;2022-12-10T09:00:59;7.35;;;3.47;;
44426;SDS011;30133;47.866;-4.222;2022-12-10T09:03:26;8.38;;;3.15;;
44426;SDS011;30133;47.866;-4.222;2022-12-10T09:05:52;5.55;;;3.75;;
44426;SDS011;30133;47.866;-4.222;2022-12-10T09:08:18;6.93;;;3.58;;
44426;SDS011;30133;47.866;-4.222;2022-12-10T09:10:44;5.57;;;3.65;;
44426;SDS011;30133;47.866;-4.222;2022-12-10T09:13:10;5.78;;;3.67;;
44426;SDS011;30133;47.866;-4.222;2022-12-10T09:15:37;5.90;;;3.53;;
44426;SDS011;30133;47.866;-4.222;2022-12-10T09:18:03;4.82;;;3.47;;
44426;SDS011;30133;47.866;-4.222;2022-12-10T09:20:29;6.85;;;3.85;;
44426;SDS011;30133;47.866;-4.222;2022-12-10T09:22:55;7.20;;;3.78;;
44426;SDS011;30133;47.866;-4.222;2022-12-10T09:25:21;7.35;;;4.35;;
44426;SDS011;30133;47.866;-4.222;2022-12-10T09:27:47;6.40;;;3.20;;
44426;SDS011;30133;47.866;-4.222;2022-12-10T09:30:13;8.90;;;4.53;;
44426;SDS011;30133;47.866;-4.222;2022-12-10T09:32:40;7.60;;;3.55;;
44426;SDS011;30133;47.866;-4.222;2022-12-10T09:35:06;9.82;;;4.47;;
44426;SDS011;30133;47.866;-4.222;2022-12-10T09:37:33;10.32;;;4.15;;
44426;SDS011;30133;47.866;-4.222;2022-12-10T09:39:59;10.57;;;4.65;;
44426;SDS011;30133;47.866;-4.222;2022-12-10T09:42:38;11.20;;;4.15;;
44426;SDS011;30133;47.866;-4.222;2022-12-10T09:51:24;11.15;;;4.45;;
44426;SDS011;30133;47.866;-4.222;2022-12-10T09:53:57;19.52;;;4.80;;
44426;SDS011;30133;47.866;-4.222;2022-12-10T09:56:35;12.20;;;4.00;;
44426;SDS011;30133;47.866;-4.222;2022-12-10T09:59:13;8.38;;;4.88;;
44426;SDS011;30133;47.866;-4.222;2022-12-10T10:01:46;14.00;;;4.35;;
44426;SDS011;30133;47.866;-4.222;2022-12-10T10:04:19;6.20;;;4.10;;
44426;SDS011;30133;47.866;-4.222;2022-12-10T10:06:45;10.50;;;4.32;;
44426;SDS011;30133;47.866;-4.222;2022-12-10T10:09:12;11.40;;;4.13;;
44426;SDS011;30133;47.866;-4.222;2022-12-10T10:11:39;5.30;;;3.42;;
44426;SDS011;30133;47.866;-4.222;2022-12-10T10:14:08;27.92;;;4.30;;
44426;SDS011;30133;47.866;-4.222;2022-12-10T10:16:44;9.35;;;3.67;;
44426;SDS011;30133;47.866;-4.222;2022-12-10T10:19:24;6.78;;;4.47;;
44426;SDS011;30133;47.866;-4.222;2022-12-10T10:21:58;7.85;;;4.20;;
44426;SDS011;30133;47.866;-4.222;2022-12-10T10:24:25;9.38;;;4.22;;
44426;SDS011;30133;47.866;-4.222;2022-12-10T10:27:01;16.58;;;4.80;;
44426;SDS011;30133;47.866;-4.222;2022-12-10T10:29:47;10.05;;;4.28;;
44426;SDS011;30133;47.866;-4.222;2022-12-10T10:32:21;7.05;;;3.85;;
44426;SDS011;30133;47.866;-4.222;2022-12-10T10:35:00;14.63;;;4.95;;
44426;SDS011;30133;47.866;-4.222;2022-12-10T10:37:28;8.18;;;4.13;;
44426;SDS011;30133;47.866;-4.222;2022-12-10T10:40:06;11.30;;;3.90;;
44426;SDS011;30133;47.866;-4.222;2022-12-10T10:42:51;12.80;;;4.13;;
44426;SDS011;30133;47.866;-4.222;2022-12-10T10:48:06;24.30;;;3.85;;
44426;SDS011;30133;47.866;-4.222;2022-12-10T10:50:48;6.90;;;3.65;;
44426;SDS011;30133;47.866;-4.222;2022-12-10T10:53:23;8.02;;;4.30;;
44426;SDS011;30133;47.866;-4.222;2022-12-10T11:01:59;7.53;;;4.07;;
44426;SDS011;30133;47.866;-4.222;2022-12-10T11:04:55;10.57;;;3.78;;
44426;SDS011;30133;47.866;-4.222;2022-12-10T11:07:31;15.35;;;3.70;;
44426;SDS011;30133;47.866;-4.222;2022-12-10T11:10:01;14.43;;;3.40;;
44426;SDS011;30133;47.866;-4.222;2022-12-10T11:12:53;7.07;;;3.88;;
44426;SDS011;30133;47.866;-4.222;2022-12-10T11:15:36;21.33;;;4.10;;
44426;SDS011;30133;47.866;-4.222;2022-12-10T11:23:30;13.73;;;3.83;;
44426;SDS011;30133;47.866;-4.222;2022-12-10T11:28:36;10.68;;;4.45;;
44426;SDS011;30133;47.866;-4.222;2022-12-10T11:31:31;5.28;;;3.50;;
44426;SDS011;30133;47.866;-4.222;2022-12-10T11:34:26;8.98;;;3.90;;
44426;SDS011;30133;47.866;-4.222;2022-12-10T11:51:36;10.77;;;3.75;;
44426;SDS011;30133;47.866;-4.222;2022-12-10T11:54:52;5.25;;;3.05;;
44426;SDS011;30133;47.866;-4.222;2022-12-10T11:58:12;7.30;;;3.47;;
44426;SDS011;30133;47.866;-4.222;2022-12-10T12:01:22;8.32;;;3.28;;
44426;SDS011;30133;47.866;-4.222;2022-12-10T12:13:13;9.95;;;3.35;;
44426;SDS011;30133;47.866;-4.222;2022-12-10T12:16:03;6.60;;;3.42;;
44426;SDS011;30133;47.866;-4.222;2022-12-10T12:21:16;6.82;;;3.60;;
44426;SDS011;30133;47.866;-4.222;2022-12-10T12:29:01;5.60;;;2.78;;
44426;SDS011;30133;47.866;-4.222;2022-12-10T12:31:59;7.25;;;3.42;;
44426;SDS011;30133;47.866;-4.222;2022-12-10T12:34:52;6.68;;;3.88;;
44426;SDS011;30133;47.866;-4.222;2022-12-10T12:37:59;6.05;;;3.35;;
44426;SDS011;30133;47.866;-4.222;2022-12-10T12:40:43;5.63;;;3.17;;
44426;SDS011;30133;47.866;-4.222;2022-12-10T12:46:02;7.15;;;3.60;;
44426;SDS011;30133;47.866;-4.222;2022-12-10T12:48:46;6.88;;;2.92;;
44426;SDS011;30133;47.866;-4.222;2022-12-10T12:52:21;6.85;;;3.30;;
44426;SDS011;30133;47.866;-4.222;2022-12-10T12:54:55;5.80;;;3.25;;
44426;SDS011;30133;47.866;-4.222;2022-12-10T13:00:18;5.70;;;3.15;;
44426;SDS011;30133;47.866;-4.222;2022-12-10T13:05:36;4.28;;;2.70;;
44426;SDS011;30133;47.866;-4.222;2022-12-10T13:08:37;3.20;;;2.67;;
44426;SDS011;30133;47.866;-4.222;2022-12-10T13:11:00;4.18;;;2.60;;
44426;SDS011;30133;47.866;-4.222;2022-12-10T13:14:09;4.30;;;3.00;;
44426;SDS011;30133;47.866;-4.222;2022-12-10T13:32:24;4.13;;;2.58;;
44426;SDS011;30133;47.866;-4.222;2022-12-10T13:43:58;4.95;;;2.63;;
44426;SDS011;30133;47.866;-4.222;2022-12-10T13:48:59;7.18;;;2.13;;
44426;SDS011;30133;47.866;-4.222;2022-12-10T13:54:29;2.80;;;2.08;;
44426;SDS011;30133;47.866;-4.222;2022-12-10T13:57:37;4.40;;;2.20;;
44426;SDS011;30133;47.866;-4.222;2022-12-10T14:04:05;4.90;;;2.17;;
44426;SDS011;30133;47.866;-4.222;2022-12-10T14:06:55;8.07;;;2.30;;
44426;SDS011;30133;47.866;-4.222;2022-12-10T14:09:23;8.15;;;2.40;;
44426;SDS011;30133;47.866;-4.222;2022-12-10T14:14:30;5.13;;;2.22;;
44426;SDS011;30133;47.866;-4.222;2022-12-10T14:17:01;6.18;;;2.38;;
44426;SDS011;30133;47.866;-4.222;2022-12-10T14:19:41;8.40;;;2.38;;
44426;SDS011;30133;47.866;-4.222;2022-12-10T14:22:15;5.35;;;2.08;;
44426;SDS011;30133;47.866;-4.222;2022-12-10T14:24:49;3.53;;;2.28;;
44426;SDS011;30133;47.866;-4.222;2022-12-10T14:27:17;6.80;;;1.60;;
44426;SDS011;30133;47.866;-4.222;2022-12-10T14:29:46;4.40;;;1.80;;
44426;SDS011;30133;47.866;-4.222;2022-12-10T14:32:17;5.78;;;2.10;;
44426;SDS011;30133;47.866;-4.222;2022-12-10T14:34:52;20.50;;;2.58;;
44426;SDS011;30133;47.866;-4.222;2022-12-10T14:37:23;3.92;;;1.98;;
44426;SDS011;30133;47.866;-4.222;2022-12-10T14:39:52;7.88;;;1.90;;
44426;SDS011;30133;47.866;-4.222;2022-12-10T14:42:19;16.50;;;2.25;;
44426;SDS011;30133;47.866;-4.222;2022-12-10T14:44:45;7.97;;;2.13;;
44426;SDS011;30133;47.866;-4.222;2022-12-10T14:47:23;6.60;;;2.55;;
44426;SDS011;30133;47.866;-4.222;2022-12-10T14:49:50;17.77;;;2.05;;
44426;SDS011;30133;47.866;-4.222;2022-12-10T14:52:20;32.28;;;2.65;;
44426;SDS011;30133;47.866;-4.222;2022-12-10T14:54:57;8.43;;;2.15;;
44426;SDS011;30133;47.866;-4.222;2022-12-10T14:57:24;14.05;;;1.90;;
44426;SDS011;30133;47.866;-4.222;2022-12-10T15:00:05;4.07;;;1.80;;
44426;SDS011;30133;47.866;-4.222;2022-12-10T15:02:43;4.70;;;1.85;;
44426;SDS011;30133;47.866;-4.222;2022-12-10T15:05:18;6.43;;;1.63;;
44426;SDS011;30133;47.866;-4.222;2022-12-10T15:10:36;5.90;;;3.00;;
44426;SDS011;30133;47.866;-4.222;2022-12-10T15:13:08;10.60;;;1.83;;
44426;SDS011;30133;47.866;-4.222;2022-12-10T15:16:20;5.53;;;1.58;;
44426;SDS011;30133;47.866;-4.222;2022-12-10T15:19:06;3.10;;;1.70;;
44426;SDS011;30133;47.866;-4.222;2022-12-10T15:21:45;4.07;;;1.20;;
44426;SDS011;30133;47.866;-4.222;2022-12-10T15:24:14;8.82;;;1.83;;
44426;SDS011;30133;47.866;-4.222;2022-12-10T15:26:48;3.22;;;1.60;;
44426;SDS011;30133;47.866;-4.222;2022-12-10T15:32:05;21.98;;;1.83;;
44426;SDS011;30133;47.866;-4.222;2022-12-10T15:34:44;5.30;;;2.17;;
44426;SDS011;30133;47.866;-4.222;2022-12-10T15:37:16;5.30;;;1.83;;
44426;SDS011;30133;47.866;-4.222;2022-12-10T15:39:55;4.43;;;1.67;;
44426;SDS011;30133;47.866;-4.222;2022-12-10T15:42:28;11.98;;;2.42;;
44426;SDS011;30133;47.866;-4.222;2022-12-10T15:45:15;5.22;;;2.05;;
44426;SDS011;30133;47.866;-4.222;2022-12-10T15:47:47;8.35;;;1.55;;
44426;SDS011;30133;47.866;-4.222;2022-12-10T15:50:14;4.05;;;1.73;;
44426;SDS011;30133;47.866;-4.222;2022-12-10T15:52:41;10.93;;;1.83;;
44426;SDS011;30133;47.866;-4.222;2022-12-10T15:55:10;11.77;;;1.90;;
44426;SDS011;30133;47.866;-4.222;2022-12-10T15:57:38;3.58;;;1.50;;
44426;SDS011;30133;47.866;-4.222;2022-12-10T16:02:56;4.68;;;1.67;;
44426;SDS011;30133;47.866;-4.222;2022-12-10T16:05:25;5.82;;;1.33;;
44426;SDS011;30133;47.866;-4.222;2022-12-10T16:08:00;9.20;;;2.28;;
44426;SDS011;30133;47.866;-4.222;2022-12-10T16:10:39;24.98;;;2.03;;
44426;SDS011;30133;47.866;-4.222;2022-12-10T16:13:06;10.93;;;1.75;;
44426;SDS011;30133;47.866;-4.222;2022-12-10T16:15:43;18.35;;;1.88;;
44426;SDS011;30133;47.866;-4.222;2022-12-10T16:18:15;9.38;;;1.70;;
44426;SDS011;30133;47.866;-4.222;2022-12-10T16:20:42;12.52;;;1.83;;
44426;SDS011;30133;47.866;-4.222;2022-12-10T16:23:09;22.05;;;2.33;;
44426;SDS011;30133;47.866;-4.222;2022-12-10T16:25:37;14.90;;;1.80;;
44426;SDS011;30133;47.866;-4.222;2022-12-10T16:28:10;22.58;;;2.88;;
44426;SDS011;30133;47.866;-4.222;2022-12-10T16:30:42;15.90;;;1.75;;
44426;SDS011;30133;47.866;-4.222;2022-12-10T16:33:10;7.82;;;2.15;;
44426;SDS011;30133;47.866;-4.222;2022-12-10T16:35:38;15.15;;;2.63;;
44426;SDS011;30133;47.866;-4.222;2022-12-10T16:38:04;9.55;;;1.92;;
44426;SDS011;30133;47.866;-4.222;2022-12-10T16:40:31;10.52;;;2.28;;
44426;SDS011;30133;47.866;-4.222;2022-12-10T16:42:57;6.85;;;2.30;;
44426;SDS011;30133;47.866;-4.222;2022-12-10T16:45:25;13.48;;;2.38;;
44426;SDS011;30133;47.866;-4.222;2022-12-10T16:48:02;16.02;;;2.33;;
44426;SDS011;30133;47.866;-4.222;2022-12-10T16:50:29;5.93;;;2.10;;
44426;SDS011;30133;47.866;-4.222;2022-12-10T16:52:56;15.73;;;2.63;;
44426;SDS011;30133;47.866;-4.222;2022-12-10T16:55:23;19.85;;;2.85;;
44426;SDS011;30133;47.866;-4.222;2022-12-10T16:57:51;12.95;;;1.90;;
44426;SDS011;30133;47.866;-4.222;2022-12-10T17:00:20;20.75;;;2.45;;
44426;SDS011;30133;47.866;-4.222;2022-12-10T17:02:48;9.35;;;2.25;;
44426;SDS011;30133;47.866;-4.222;2022-12-10T17:05:29;10.75;;;3.28;;
44426;SDS011;30133;47.866;-4.222;2022-12-10T17:08:00;10.63;;;2.20;;
44426;SDS011;30133;47.866;-4.222;2022-12-10T17:10:27;17.88;;;2.80;;
44426;SDS011;30133;47.866;-4.222;2022-12-10T17:13:13;18.75;;;2.78;;
44426;SDS011;30133;47.866;-4.222;2022-12-10T17:15:40;14.07;;;2.58;;
44426;SDS011;30133;47.866;-4.222;2022-12-10T17:18:15;23.63;;;2.30;;